sensor_id;sensor_type;location;lat;lon;timestamp;P1;P2;P0
74430;PMS7003;62863;52.062;23.764;2024-03-22T00:04:59;26.4;23;16.6
74430;PMS7003;62863;52.062;23.764;2024-03-22T00:09:41;27.8;23.4;17.4
74430;PMS7003;62863;52.062;23.764;2024-03-22T00:14:41;39.4;33.4;22.2
74430;PMS7003;62863;52.062;23.764;2024-03-22T00:19:41;31.6;27.6;19.8
74430;PMS7003;62863;52.062;23.764;2024-03-22T00:24:53;28;24.2;17.6
74430;PMS7003;62863;52.062;23.764;2024-03-22T00:30:03;25.6;22.6;17.4
74430;PMS7003;62863;52.062;23.764;2024-03-22T00:35:23;24.3;21;15.3
74430;PMS7003;62863;52.062;23.764;2024-03-22T00:40:11;21.8;19.4;14
74430;PMS7003;62863;52.062;23.764;2024-03-22T00:45:09;24;19.6;13.6
74430;PMS7003;62863;52.062;23.764;2024-03-22T00:49:49;24;19.6;13.6
74430;PMS7003;62863;52.062;23.764;2024-03-22T00:55:09;26.8;23;15.4
74430;PMS7003;62863;52.062;23.764;2024-03-22T00:59:55;26.8;23;15.4
74430;PMS7003;62863;52.062;23.764;2024-03-22T01:04:41;26.6;24.2;18
74430;PMS7003;62863;52.062;23.764;2024-03-22T01:10:01;29.4;25;17
74430;PMS7003;62863;52.062;23.764;2024-03-22T01:15:03;24.4;20.6;15.6
74430;PMS7003;62863;52.062;23.764;2024-03-22T01:20:23;23.6;21;13.6
74430;PMS7003;62863;52.062;23.764;2024-03-22T01:24:41;23.6;21;13.6
74430;PMS7003;62863;52.062;23.764;2024-03-22T01:30:13;25.2;22.8;15.4
74430;PMS7003;62863;52.062;23.764;2024-03-22T01:34:49;25.2;22.8;15.4
74430;PMS7003;62863;52.062;23.764;2024-03-22T01:39:41;25;22.3;15.5
74430;PMS7003;62863;52.062;23.764;2024-03-22T01:44:49;24.8;23;15.8
74430;PMS7003;62863;52.062;23.764;2024-03-22T01:49:41;27;23.6;15.4
74430;PMS7003;62863;52.062;23.764;2024-03-22T01:54:41;25.6;23.6;15.4
74430;PMS7003;62863;52.062;23.764;2024-03-22T01:59:59;26.8;24;15.8
74430;PMS7003;62863;52.062;23.764;2024-03-22T02:05:21;79;65.8;43
74430;PMS7003;62863;52.062;23.764;2024-03-22T02:10:15;54.4;43.2;30.2
74430;PMS7003;62863;52.062;23.764;2024-03-22T02:15:23;38;33;22.8
74430;PMS7003;62863;52.062;23.764;2024-03-22T02:19:41;38;33;22.8
74430;PMS7003;62863;52.062;23.764;2024-03-22T02:25:23;47.2;38;24.8
74430;PMS7003;62863;52.062;23.764;2024-03-22T02:30:23;47.8;39;25
74430;PMS7003;62863;52.062;23.764;2024-03-22T02:35:13;50.3;41;26
74430;PMS7003;62863;52.062;23.764;2024-03-22T02:39:51;50.3;41;26
74430;PMS7003;62863;52.062;23.764;2024-03-22T02:45:09;76.2;60.4;38.2
74430;PMS7003;62863;52.062;23.764;2024-03-22T02:50:03;76.2;60.4;38.2
74430;PMS7003;62863;52.062;23.764;2024-03-22T02:55:23;35.6;30.2;21.4
74430;PMS7003;62863;52.062;23.764;2024-03-22T02:59:41;35.6;30.2;21.4
74430;PMS7003;62863;52.062;23.764;2024-03-22T03:05:23;48.2;40.2;27.8
74430;PMS7003;62863;52.062;23.764;2024-03-22T03:09:49;48.2;40.2;27.8
74430;PMS7003;62863;52.062;23.764;2024-03-22T03:14:59;30.2;26.2;19
74430;PMS7003;62863;52.062;23.764;2024-03-22T03:19:49;32.8;28.4;18.4
74430;PMS7003;62863;52.062;23.764;2024-03-22T03:24:49;31.6;26.6;18.2
74430;PMS7003;62863;52.062;23.764;2024-03-22T03:29:49;31.4;28;17.8
74430;PMS7003;62863;52.062;23.764;2024-03-22T03:35:09;33.8;29;18
74430;PMS7003;62863;52.062;23.764;2024-03-22T03:40:03;33.8;29;18
74430;PMS7003;62863;52.062;23.764;2024-03-22T03:44:57;32.2;26.4;17.8
74430;PMS7003;62863;52.062;23.764;2024-03-22T03:50:11;34;30.8;21
74430;PMS7003;62863;52.062;23.764;2024-03-22T03:55:03;34;30.8;21
74430;PMS7003;62863;52.062;23.764;2024-03-22T04:00:23;37;33.4;21.6
74430;PMS7003;62863;52.062;23.764;2024-03-22T04:04:41;37;33.4;21.6
74430;PMS7003;62863;52.062;23.764;2024-03-22T04:09:43;37.8;32;21.4
74430;PMS7003;62863;52.062;23.764;2024-03-22T04:14:41;40.8;36;24.2
74430;PMS7003;62863;52.062;23.764;2024-03-22T04:19:43;47;38.8;24.6
74430;PMS7003;62863;52.062;23.764;2024-03-22T04:25:23;38.6;33.2;22.6
74430;PMS7003;62863;52.062;23.764;2024-03-22T04:30:11;33.4;30.4;21.4
74430;PMS7003;62863;52.062;23.764;2024-03-22T04:35:02;33.4;30.4;21.4
74430;PMS7003;62863;52.062;23.764;2024-03-22T04:40:23;43.8;36.8;25.5
74430;PMS7003;62863;52.062;23.764;2024-03-22T04:45:13;41.2;35.2;22.6
74430;PMS7003;62863;52.062;23.764;2024-03-22T04:50:11;35.2;31.4;21.4
74430;PMS7003;62863;52.062;23.764;2024-03-22T04:54:41;35.2;31.4;21.4
74430;PMS7003;62863;52.062;23.764;2024-03-22T04:59:41;39.8;34.4;21.8
74430;PMS7003;62863;52.062;23.764;2024-03-22T05:04:51;41.8;35;23.4
74430;PMS7003;62863;52.062;23.764;2024-03-22T05:09:45;41.4;33.8;22.4
74430;PMS7003;62863;52.062;23.764;2024-03-22T05:14:41;40.8;35.8;24
74430;PMS7003;62863;52.062;23.764;2024-03-22T05:19:55;41.8;35.8;23.8
74430;PMS7003;62863;52.062;23.764;2024-03-22T05:24:59;38;34.8;22.2
74430;PMS7003;62863;52.062;23.764;2024-03-22T05:30:23;40.8;37.2;24.8
74430;PMS7003;62863;52.062;23.764;2024-03-22T05:35:23;39.6;35.6;25
74430;PMS7003;62863;52.062;23.764;2024-03-22T05:39:59;39.6;35.6;25
74430;PMS7003;62863;52.062;23.764;2024-03-22T05:45:13;47.2;39.6;25.4
74430;PMS7003;62863;52.062;23.764;2024-03-22T05:49:57;47.2;39.6;25.4
74430;PMS7003;62863;52.062;23.764;2024-03-22T05:55:09;53;41.6;27.4
74430;PMS7003;62863;52.062;23.764;2024-03-22T06:00:23;52.4;40.4;26.2
74430;PMS7003;62863;52.062;23.764;2024-03-22T06:05:11;44.6;38.4;25
74430;PMS7003;62863;52.062;23.764;2024-03-22T06:09:53;44.6;38.4;25
74430;PMS7003;62863;52.062;23.764;2024-03-22T06:15:23;47.4;40;26.4
74430;PMS7003;62863;52.062;23.764;2024-03-22T06:20:23;55.6;42.6;27.6
74430;PMS7003;62863;52.062;23.764;2024-03-22T06:24:44;55.6;42.6;27.6
74430;PMS7003;62863;52.062;23.764;2024-03-22T06:29:49;53.4;40.4;27.2
74430;PMS7003;62863;52.062;23.764;2024-03-22T06:34:49;52.2;41.4;28
74430;PMS7003;62863;52.062;23.764;2024-03-22T06:40:06;56.5;45.3;29.3
74430;PMS7003;62863;52.062;23.764;2024-03-22T06:44:41;56.5;45.3;29.3
74430;PMS7003;62863;52.062;23.764;2024-03-22T06:49:41;62;49.6;31.4
74430;PMS7003;62863;52.062;23.764;2024-03-22T06:54:57;60.8;49;32
74430;PMS7003;62863;52.062;23.764;2024-03-22T07:00:01;57.2;45.6;28.8
74430;PMS7003;62863;52.062;23.764;2024-03-22T07:04:41;55.6;44.6;28.2
74430;PMS7003;62863;52.062;23.764;2024-03-22T07:10:09;54;42.8;27
74430;PMS7003;62863;52.062;23.764;2024-03-22T07:15:11;53.6;42.8;27.2
74430;PMS7003;62863;52.062;23.764;2024-03-22T07:20:01;53.6;42.8;27.2
74430;PMS7003;62863;52.062;23.764;2024-03-22T07:24:57;56.8;45;28
74430;PMS7003;62863;52.062;23.764;2024-03-22T07:29:43;61.3;45.7;28
74430;PMS7003;62863;52.062;23.764;2024-03-22T07:35:13;52.5;40.8;25.8
74430;PMS7003;62863;52.062;23.764;2024-03-22T07:39:59;52.5;40.8;25.8
74430;PMS7003;62863;52.062;23.764;2024-03-22T07:44:51;50.8;40.8;26
74430;PMS7003;62863;52.062;23.764;2024-03-22T07:50:11;43.6;35.4;23
74430;PMS7003;62863;52.062;23.764;2024-03-22T07:55:23;40.8;33.8;23.4
74430;PMS7003;62863;52.062;23.764;2024-03-22T07:59:53;40.8;33.8;23.4
74430;PMS7003;62863;52.062;23.764;2024-03-22T08:05:04;41.2;32.6;21.6
74430;PMS7003;62863;52.062;23.764;2024-03-22T08:09:41;46.4;36.8;23.4
74430;PMS7003;62863;52.062;23.764;2024-03-22T08:14:41;45.4;37.2;23.6
74430;PMS7003;62863;52.062;23.764;2024-03-22T08:20:07;45.5;38.3;25
74430;PMS7003;62863;52.062;23.764;2024-03-22T08:24:49;45.5;38.3;25
74430;PMS7003;62863;52.062;23.764;2024-03-22T08:30:01;43;35.8;23.4
74430;PMS7003;62863;52.062;23.764;2024-03-22T08:35:23;44.6;36.6;22.6
74430;PMS7003;62863;52.062;23.764;2024-03-22T08:39:43;44.6;36.6;22.6
74430;PMS7003;62863;52.062;23.764;2024-03-22T08:45:23;40;33.8;21.2
74430;PMS7003;62863;52.062;23.764;2024-03-22T08:50:23;38.3;32.5;20.5
74430;PMS7003;62863;52.062;23.764;2024-03-22T08:55:13;30.8;26.8;17.2
74430;PMS7003;62863;52.062;23.764;2024-03-22T09:00:16;24.8;22.6;14.2
74430;PMS7003;62863;52.062;23.764;2024-03-22T09:05:01;24.8;22.6;14.2
74430;PMS7003;62863;52.062;23.764;2024-03-22T09:10:15;27.2;25.8;16.4
74430;PMS7003;62863;52.062;23.764;2024-03-22T09:14:51;27.2;25.8;16.4
74430;PMS7003;62863;52.062;23.764;2024-03-22T09:20:11;32.6;28.4;17.6
74430;PMS7003;62863;52.062;23.764;2024-03-22T09:25:15;33;29.4;19
74430;PMS7003;62863;52.062;23.764;2024-03-22T09:30:25;38.6;30.8;21.2
74430;PMS7003;62863;52.062;23.764;2024-03-22T09:35:13;41.3;34.5;21.3
74430;PMS7003;62863;52.062;23.764;2024-03-22T09:40:25;41.4;34.8;21.4
74430;PMS7003;62863;52.062;23.764;2024-03-22T09:44:44;41.4;34.8;21.4
74430;PMS7003;62863;52.062;23.764;2024-03-22T09:49:44;42.8;34.6;21.6
74430;PMS7003;62863;52.062;23.764;2024-03-22T09:54:44;41.8;35.2;22.8
74430;PMS7003;62863;52.062;23.764;2024-03-22T09:59:44;40.6;35.2;22.4
74430;PMS7003;62863;52.062;23.764;2024-03-22T10:04:43;46.6;37.2;22.8
74430;PMS7003;62863;52.062;23.764;2024-03-22T10:09:51;52;40.2;25.2
74430;PMS7003;62863;52.062;23.764;2024-03-22T10:15:13;41.2;34.2;20.8
74430;PMS7003;62863;52.062;23.764;2024-03-22T10:20:26;39;33;22
74430;PMS7003;62863;52.062;23.764;2024-03-22T10:25:26;40.8;35.4;23
74430;PMS7003;62863;52.062;23.764;2024-03-22T10:29:59;40.8;35.4;23
74430;PMS7003;62863;52.062;23.764;2024-03-22T10:35:23;41.3;35.5;22.8
74430;PMS7003;62863;52.062;23.764;2024-03-22T10:40:25;34.6;30.8;19.4
74430;PMS7003;62863;52.062;23.764;2024-03-22T10:45:15;32.8;29.2;18.4
74430;PMS7003;62863;52.062;23.764;2024-03-22T10:50:11;34;29.4;18.6
74430;PMS7003;62863;52.062;23.764;2024-03-22T10:55:12;31.2;27.8;17.6
74430;PMS7003;62863;52.062;23.764;2024-03-22T11:00:14;39.8;32.2;21
74430;PMS7003;62863;52.062;23.764;2024-03-22T11:05:25;37.2;32.4;21.4
74430;PMS7003;62863;52.062;23.764;2024-03-22T11:10:14;40;33.4;20
74430;PMS7003;62863;52.062;23.764;2024-03-22T11:15:28;30;27.6;18.4
74430;PMS7003;62863;52.062;23.764;2024-03-22T11:19:52;30;27.6;18.4
74430;PMS7003;62863;52.062;23.764;2024-03-22T11:24:43;40.2;32.6;20.4
74430;PMS7003;62863;52.062;23.764;2024-03-22T11:29:51;42;35.6;23.4
74430;PMS7003;62863;52.062;23.764;2024-03-22T11:35:13;38.8;32.5;22
74430;PMS7003;62863;52.062;23.764;2024-03-22T11:40:26;42.6;33.4;22
74430;PMS7003;62863;52.062;23.764;2024-03-22T11:44:51;42.6;33.4;22
74430;PMS7003;62863;52.062;23.764;2024-03-22T11:49:45;39.6;33.8;22.2
74430;PMS7003;62863;52.062;23.764;2024-03-22T11:54:52;44;35;21.8
74430;PMS7003;62863;52.062;23.764;2024-03-22T12:00:25;45.4;36.6;22.2
74430;PMS7003;62863;52.062;23.764;2024-03-22T12:04:51;45.4;36.6;22.2
74430;PMS7003;62863;52.062;23.764;2024-03-22T12:10:26;45;36.4;23.6
74430;PMS7003;62863;52.062;23.764;2024-03-22T12:15:02;45;36.4;23.6
74430;PMS7003;62863;52.062;23.764;2024-03-22T12:20:16;47.2;38.8;25
74430;PMS7003;62863;52.062;23.764;2024-03-22T12:25:02;47.2;38.8;25
74430;PMS7003;62863;52.062;23.764;2024-03-22T12:30:04;47.4;39.8;25.4
74430;PMS7003;62863;52.062;23.764;2024-03-22T12:35:24;55.3;42.5;26
74430;PMS7003;62863;52.062;23.764;2024-03-22T12:40:16;50.2;41;25.6
74430;PMS7003;62863;52.062;23.764;2024-03-22T12:45:26;52;40.8;26.2
74430;PMS7003;62863;52.062;23.764;2024-03-22T12:50:26;53.8;41.8;25.8
74430;PMS7003;62863;52.062;23.764;2024-03-22T12:55:26;52.8;41.8;26
74430;PMS7003;62863;52.062;23.764;2024-03-22T13:00:12;52.2;41.8;26.2
74430;PMS7003;62863;52.062;23.764;2024-03-22T13:05:04;52.2;41.8;26.2
74430;PMS7003;62863;52.062;23.764;2024-03-22T13:09:52;49.4;38.2;25
74430;PMS7003;62863;52.062;23.764;2024-03-22T13:14:52;46.8;38.4;25
74430;PMS7003;62863;52.062;23.764;2024-03-22T13:19:52;53.6;43.4;26.8
74430;PMS7003;62863;52.062;23.764;2024-03-22T13:24:54;53.8;41.2;26.4
74430;PMS7003;62863;52.062;23.764;2024-03-22T13:29:44;51.4;41;26.2
74430;PMS7003;62863;52.062;23.764;2024-03-22T13:35:12;55;43.5;26.8
74430;PMS7003;62863;52.062;23.764;2024-03-22T13:39:52;55;43.5;26.8
74430;PMS7003;62863;52.062;23.764;2024-03-22T13:45:24;57.2;43.8;28
74430;PMS7003;62863;52.062;23.764;2024-03-22T13:50:12;56.4;45.8;29.2
74430;PMS7003;62863;52.062;23.764;2024-03-22T13:55:24;55.8;42.8;27.8
74430;PMS7003;62863;52.062;23.764;2024-03-22T13:59:44;55.8;42.8;27.8
74430;PMS7003;62863;52.062;23.764;2024-03-22T14:05:12;44;36.4;23.2
74430;PMS7003;62863;52.062;23.764;2024-03-22T14:09:46;44;36.4;23.2
74430;PMS7003;62863;52.062;23.764;2024-03-22T14:15:02;50;39;24.8
74430;PMS7003;62863;52.062;23.764;2024-03-22T14:19:44;47.6;38.2;23.8
74430;PMS7003;62863;52.062;23.764;2024-03-22T14:25:08;40;34.6;21.2
74430;PMS7003;62863;52.062;23.764;2024-03-22T14:30:24;39.2;32.8;22
74430;PMS7003;62863;52.062;23.764;2024-03-22T14:34:44;39.2;32.8;22
74430;PMS7003;62863;52.062;23.764;2024-03-22T14:40:14;39.3;34.3;22.3
74430;PMS7003;62863;52.062;23.764;2024-03-22T14:44:56;39.3;34.3;22.3
74430;PMS7003;62863;52.062;23.764;2024-03-22T14:49:44;39.4;31.8;20.2
74430;PMS7003;62863;52.062;23.764;2024-03-22T14:54:44;36.8;32;21.4
74430;PMS7003;62863;52.062;23.764;2024-03-22T14:59:52;44;35.4;22.6
74430;PMS7003;62863;52.062;23.764;2024-03-22T15:04:50;37;32;20.8
74430;PMS7003;62863;52.062;23.764;2024-03-22T15:10:10;42.4;36.4;22.8
74430;PMS7003;62863;52.062;23.764;2024-03-22T15:15:00;42.4;36.4;22.8
74430;PMS7003;62863;52.062;23.764;2024-03-22T15:20:24;41.2;35;21.6
74430;PMS7003;62863;52.062;23.764;2024-03-22T15:25:12;42.6;35.8;23.4
74430;PMS7003;62863;52.062;23.764;2024-03-22T15:30:12;58.5;48.5;30.5
74430;PMS7003;62863;52.062;23.764;2024-03-22T15:35:02;58.5;48.5;30.5
74430;PMS7003;62863;52.062;23.764;2024-03-22T15:40:12;51.6;42.2;27.6
74430;PMS7003;62863;52.062;23.764;2024-03-22T15:45:24;49.2;38.2;24.6
74430;PMS7003;62863;52.062;23.764;2024-03-22T15:50:02;49.2;38.2;24.6
74430;PMS7003;62863;52.062;23.764;2024-03-22T15:54:56;46.6;38.6;24.4
74430;PMS7003;62863;52.062;23.764;2024-03-22T15:59:54;46.4;37;23.4
74430;PMS7003;62863;52.062;23.764;2024-03-22T16:05:24;40.8;34.2;21.2
74430;PMS7003;62863;52.062;23.764;2024-03-22T16:10:24;40.6;34.8;23
74430;PMS7003;62863;52.062;23.764;2024-03-22T16:14:46;40.6;34.8;23
74430;PMS7003;62863;52.062;23.764;2024-03-22T16:20:12;41.6;35;22.2
74430;PMS7003;62863;52.062;23.764;2024-03-22T16:24:56;41.6;35;22.2
74430;PMS7003;62863;52.062;23.764;2024-03-22T16:30:24;36.2;31.2;19.6
74430;PMS7003;62863;52.062;23.764;2024-03-22T16:34:44;36.2;31.2;19.6
74430;PMS7003;62863;52.062;23.764;2024-03-22T16:39:44;32.4;28.2;17.8
74430;PMS7003;62863;52.062;23.764;2024-03-22T16:45:26;31.2;25.4;16.4
74430;PMS7003;62863;52.062;23.764;2024-03-22T16:50:14;32.8;29.2;19
74430;PMS7003;62863;52.062;23.764;2024-03-22T16:55:26;36.4;31.2;20.2
74430;PMS7003;62863;52.062;23.764;2024-03-22T17:00:24;34;31.4;19.2
74430;PMS7003;62863;52.062;23.764;2024-03-22T17:05:00;34;31.4;19.2
74430;PMS7003;62863;52.062;23.764;2024-03-22T17:10:24;36.2;31.8;20.6
74430;PMS7003;62863;52.062;23.764;2024-03-22T17:15:24;36;31.5;21.3
74430;PMS7003;62863;52.062;23.764;2024-03-22T17:20:14;39.6;34.2;22.2
74430;PMS7003;62863;52.062;23.764;2024-03-22T17:24:44;39.6;34.2;22.2
74430;PMS7003;62863;52.062;23.764;2024-03-22T17:29:46;41.6;33.2;20.6
74430;PMS7003;62863;52.062;23.764;2024-03-22T17:35:12;32.4;29.2;19.6
74430;PMS7003;62863;52.062;23.764;2024-03-22T17:40:24;34;29;18.8
74430;PMS7003;62863;52.062;23.764;2024-03-22T17:44:44;34;29;18.8
74430;PMS7003;62863;52.062;23.764;2024-03-22T17:50:24;37;31.2;20.6
74430;PMS7003;62863;52.062;23.764;2024-03-22T17:55:04;37;31.2;20.6
74430;PMS7003;62863;52.062;23.764;2024-03-22T18:00:02;36;30.6;20.4
74430;PMS7003;62863;52.062;23.764;2024-03-22T18:05:04;33.6;28.2;19
74430;PMS7003;62863;52.062;23.764;2024-03-22T18:09:46;35.4;30.2;19.8
74430;PMS7003;62863;52.062;23.764;2024-03-22T18:14:52;44.2;36.8;24.4
74430;PMS7003;62863;52.062;23.764;2024-03-22T18:19:45;41.5;35;23.3
74430;PMS7003;62863;52.062;23.764;2024-03-22T18:29:52;35;32.8;22.8
74430;PMS7003;62863;52.062;23.764;2024-03-22T18:35:26;40;34;23.2
74430;PMS7003;62863;52.062;23.764;2024-03-22T18:40:14;41.6;34.6;23
74430;PMS7003;62863;52.062;23.764;2024-03-22T18:45:26;41.6;34.8;23.8
74430;PMS7003;62863;52.062;23.764;2024-03-22T18:49:44;41.6;34.8;23.8
74430;PMS7003;62863;52.062;23.764;2024-03-22T18:54:47;40.4;33.2;21.4
74430;PMS7003;62863;52.062;23.764;2024-03-22T19:00:02;40.6;34.4;23.2
74430;PMS7003;62863;52.062;23.764;2024-03-22T19:05:10;43;36;23
74430;PMS7003;62863;52.062;23.764;2024-03-22T19:10:26;37;33;22
74430;PMS7003;62863;52.062;23.764;2024-03-22T19:14:54;37;33;22
74430;PMS7003;62863;52.062;23.764;2024-03-22T19:19:56;38.8;33.5;21
74430;PMS7003;62863;52.062;23.764;2024-03-22T19:25:26;50.8;40.6;26
74430;PMS7003;62863;52.062;23.764;2024-03-22T19:30:26;48.6;39;25.2
74430;PMS7003;62863;52.062;23.764;2024-03-22T19:35:14;47;37.6;25
74430;PMS7003;62863;52.062;23.764;2024-03-22T19:40:04;47;37.6;25
74430;PMS7003;62863;52.062;23.764;2024-03-22T19:44:44;45.6;37.8;25.2
74430;PMS7003;62863;52.062;23.764;2024-03-22T19:50:14;42.2;35;23.8
74430;PMS7003;62863;52.062;23.764;2024-03-22T19:54:52;42.2;35;23.8
74430;PMS7003;62863;52.062;23.764;2024-03-22T20:00:14;42.8;36.2;24.4
74430;PMS7003;62863;52.062;23.764;2024-03-22T20:04:58;42.8;36.2;24.4
74430;PMS7003;62863;52.062;23.764;2024-03-22T20:10:26;41.4;34.4;22.4
74430;PMS7003;62863;52.062;23.764;2024-03-22T20:14:44;41.4;34.4;22.4
74430;PMS7003;62863;52.062;23.764;2024-03-22T20:20:12;38;34;23.2
74430;PMS7003;62863;52.062;23.764;2024-03-22T20:25:22;40.8;34.6;22.6
74430;PMS7003;62863;52.062;23.764;2024-03-22T20:30:16;40.8;35.4;23.8
74430;PMS7003;62863;52.062;23.764;2024-03-22T20:35:08;44.4;36;22.8
